sensor_id;sensor_type;location;lat;lon;timestamp;pressure;altitude;pressure_sealevel;temperature;humidity
31096;BME280;17749;51.962;8.560;2023-06-19T05:01:31;99491.03;;;21.50;100.00
31096;BME280;17749;51.962;8.560;2023-06-19T05:03:58;99497.88;;;21.54;100.00
31096;BME280;17749;51.962;8.560;2023-06-19T05:06:26;99502.56;;;21.61;100.00
31096;BME280;17749;51.962;8.560;2023-06-19T05:08:53;99505.66;;;21.66;100.00
31096;BME280;17749;51.962;8.560;2023-06-19T05:11:20;99505.09;;;21.73;100.00
31096;BME280;17749;51.962;8.560;2023-06-19T05:13:47;99511.78;;;21.78;100.00
31096;BME280;17749;51.962;8.560;2023-06-19T05:16:14;99516.88;;;21.81;100.00
31096;BME280;17749;51.962;8.560;2023-06-19T05:18:43;99530.44;;;21.81;100.00
31096;BME280;17749;51.962;8.560;2023-06-19T05:21:11;99527.44;;;21.84;100.00
31096;BME280;17749;51.962;8.560;2023-06-19T05:23:38;99537.97;;;21.87;100.00
31096;BME280;17749;51.962;8.560;2023-06-19T05:26:05;99536.69;;;21.92;100.00
31096;BME280;17749;51.962;8.560;2023-06-19T05:28:32;99543.66;;;22.04;100.00
31096;BME280;17749;51.962;8.560;2023-06-19T05:30:59;99540.19;;;22.12;100.00
31096;BME280;17749;51.962;8.560;2023-06-19T05:33:26;99545.31;;;22.24;100.00
31096;BME280;17749;51.962;8.560;2023-06-19T05:35:54;99543.78;;;22.40;100.00
31096;BME280;17749;51.962;8.560;2023-06-19T05:38:22;99550.56;;;22.53;100.00
31096;BME280;17749;51.962;8.560;2023-06-19T05:40:50;99543.06;;;22.65;100.00
31096;BME280;17749;51.962;8.560;2023-06-19T05:43:17;99543.84;;;22.75;100.00
31096;BME280;17749;51.962;8.560;2023-06-19T05:45:45;99538.91;;;22.89;100.00
31096;BME280;17749;51.962;8.560;2023-06-19T05:48:12;99545.69;;;23.03;100.00
31096;BME280;17749;51.962;8.560;2023-06-19T05:50:39;99549.22;;;23.21;100.00
31096;BME280;17749;51.962;8.560;2023-06-19T05:53:06;99553.59;;;23.32;100.00
31096;BME280;17749;51.962;8.560;2023-06-19T05:55:33;99552.38;;;23.52;100.00
31096;BME280;17749;51.962;8.560;2023-06-19T05:58:01;99550.88;;;23.76;100.00
31096;BME280;17749;51.962;8.560;2023-06-19T06:00:29;99555.75;;;23.90;100.00
31096;BME280;17749;51.962;8.560;2023-06-19T06:02:57;99550.41;;;24.06;100.00
31096;BME280;17749;51.962;8.560;2023-06-19T06:05:27;99562.72;;;24.19;100.00
31096;BME280;17749;51.962;8.560;2023-06-19T06:07:54;99564.84;;;24.41;100.00
31096;BME280;17749;51.962;8.560;2023-06-19T06:10:23;99566.13;;;24.55;100.00
31096;BME280;17749;51.962;8.560;2023-06-19T06:12:50;99572.47;;;24.72;100.00
31096;BME280;17749;51.962;8.560;2023-06-19T06:15:17;99569.06;;;24.78;100.00
31096;BME280;17749;51.962;8.560;2023-06-19T06:17:44;99581.72;;;24.87;100.00
31096;BME280;17749;51.962;8.560;2023-06-19T06:20:11;99581.50;;;24.81;100.00
31096;BME280;17749;51.962;8.560;2023-06-19T06:22:40;99587.84;;;24.81;100.00
31096;BME280;17749;51.962;8.560;2023-06-19T06:25:08;99596.03;;;24.89;100.00
31096;BME280;17749;51.962;8.560;2023-06-19T06:27:40;99589.56;;;25.07;100.00
31096;BME280;17749;51.962;8.560;2023-06-19T06:30:07;99595.75;;;25.33;100.00
31096;BME280;17749;51.962;8.560;2023-06-19T06:32:34;99594.25;;;25.55;100.00
31096;BME280;17749;51.962;8.560;2023-06-19T06:35:01;99594.94;;;25.66;100.00
31096;BME280;17749;51.962;8.560;2023-06-19T06:37:28;99598.53;;;25.50;100.00
31096;BME280;17749;51.962;8.560;2023-06-19T06:39:55;99597.69;;;25.49;100.00
31096;BME280;17749;51.962;8.560;2023-06-19T06:42:22;99608.22;;;25.69;100.00
31096;BME280;17749;51.962;8.560;2023-06-19T06:44:49;99606.34;;;25.77;100.00
31096;BME280;17749;51.962;8.560;2023-06-19T06:47:16;99613.53;;;25.95;100.00
31096;BME280;17749;51.962;8.560;2023-06-19T06:49:43;99608.72;;;26.13;100.00
31096;BME280;17749;51.962;8.560;2023-06-19T06:52:11;99618.56;;;26.31;100.00
31096;BME280;17749;51.962;8.560;2023-06-19T06:54:38;99614.09;;;26.38;100.00
31096;BME280;17749;51.962;8.560;2023-06-19T06:57:05;99619.19;;;26.57;100.00
31096;BME280;17749;51.962;8.560;2023-06-19T06:59:32;99618.38;;;26.80;100.00
31096;BME280;17749;51.962;8.560;2023-06-19T07:02:00;99621.09;;;26.88;100.00
31096;BME280;17749;51.962;8.560;2023-06-19T07:04:27;99623.13;;;26.94;100.00
31096;BME280;17749;51.962;8.560;2023-06-19T07:06:54;99622.44;;;26.92;100.00
31096;BME280;17749;51.962;8.560;2023-06-19T07:09:21;99617.66;;;26.94;100.00
31096;BME280;17749;51.962;8.560;2023-06-19T07:11:48;99618.97;;;27.06;100.00
31096;BME280;17749;51.962;8.560;2023-06-19T07:14:19;99618.59;;;27.09;99.52
31096;BME280;17749;51.962;8.560;2023-06-19T07:16:46;99617.19;;;27.14;99.23
31096;BME280;17749;51.962;8.560;2023-06-19T07:19:13;99626.28;;;27.37;99.19
31096;BME280;17749;51.962;8.560;2023-06-19T07:21:41;99627.88;;;27.31;99.17
31096;BME280;17749;51.962;8.560;2023-06-19T07:24:08;99635.75;;;27.26;98.63
31096;BME280;17749;51.962;8.560;2023-06-19T07:26:35;99629.81;;;27.23;99.49
31096;BME280;17749;51.962;8.560;2023-06-19T07:29:02;99625.56;;;27.20;99.39
31096;BME280;17749;51.962;8.560;2023-06-19T07:31:29;99623.13;;;27.25;98.59
31096;BME280;17749;51.962;8.560;2023-06-19T07:33:56;99641.00;;;27.36;98.69
31096;BME280;17749;51.962;8.560;2023-06-19T07:36:23;99632.00;;;27.50;97.16
31096;BME280;17749;51.962;8.560;2023-06-19T07:38:51;99631.63;;;27.53;97.74
31096;BME280;17749;51.962;8.560;2023-06-19T07:41:18;99637.13;;;27.30;98.24
31096;BME280;17749;51.962;8.560;2023-06-19T07:43:45;99641.22;;;27.26;97.54
31096;BME280;17749;51.962;8.560;2023-06-19T07:46:12;99637.66;;;27.26;98.47
31096;BME280;17749;51.962;8.560;2023-06-19T07:48:39;99639.06;;;27.14;97.21
31096;BME280;17749;51.962;8.560;2023-06-19T07:51:06;99644.09;;;27.02;97.95
31096;BME280;17749;51.962;8.560;2023-06-19T07:53:33;99637.47;;;26.88;97.56
31096;BME280;17749;51.962;8.560;2023-06-19T07:56:00;99643.34;;;26.77;98.53
31096;BME280;17749;51.962;8.560;2023-06-19T07:58:27;99652.09;;;26.64;99.09
31096;BME280;17749;51.962;8.560;2023-06-19T08:00:54;99657.75;;;26.62;99.63
31096;BME280;17749;51.962;8.560;2023-06-19T08:03:21;99653.97;;;26.63;99.14
31096;BME280;17749;51.962;8.560;2023-06-19T08:05:49;99657.19;;;26.75;99.25
31096;BME280;17749;51.962;8.560;2023-06-19T08:08:18;99657.72;;;26.71;97.76
31096;BME280;17749;51.962;8.560;2023-06-19T08:10:45;99655.34;;;26.67;98.90
31096;BME280;17749;51.962;8.560;2023-06-19T08:13:12;99649.56;;;26.62;98.74
31096;BME280;17749;51.962;8.560;2023-06-19T08:15:39;99657.78;;;26.54;100.00
31096;BME280;17749;51.962;8.560;2023-06-19T08:18:06;99659.13;;;26.42;100.00
31096;BME280;17749;51.962;8.560;2023-06-19T08:20:33;99659.00;;;26.27;100.00
31096;BME280;17749;51.962;8.560;2023-06-19T08:23:00;99662.25;;;26.06;100.00
31096;BME280;17749;51.962;8.560;2023-06-19T08:25:30;99671.97;;;26.17;100.00
31096;BME280;17749;51.962;8.560;2023-06-19T08:27:57;99670.09;;;26.26;100.00
31096;BME280;17749;51.962;8.560;2023-06-19T08:30:24;99660.72;;;26.20;100.00
31096;BME280;17749;51.962;8.560;2023-06-19T08:32:53;99662.94;;;26.16;100.00
31096;BME280;17749;51.962;8.560;2023-06-19T08:35:20;99680.69;;;25.96;100.00
31096;BME280;17749;51.962;8.560;2023-06-19T08:37:47;99676.06;;;25.80;100.00
31096;BME280;17749;51.962;8.560;2023-06-19T08:40:14;99674.03;;;25.98;100.00
31096;BME280;17749;51.962;8.560;2023-06-19T08:42:41;99675.75;;;26.08;100.00
31096;BME280;17749;51.962;8.560;2023-06-19T08:45:10;99686.81;;;26.06;100.00
31096;BME280;17749;51.962;8.560;2023-06-19T08:47:39;99685.13;;;26.05;100.00
31096;BME280;17749;51.962;8.560;2023-06-19T08:50:07;99681.19;;;26.08;100.00
31096;BME280;17749;51.962;8.560;2023-06-19T08:52:35;99696.88;;;26.14;100.00
31096;BME280;17749;51.962;8.560;2023-06-19T08:55:04;99696.03;;;26.13;100.00
31096;BME280;17749;51.962;8.560;2023-06-19T08:57:39;99706.09;;;26.21;100.00
31096;BME280;17749;51.962;8.560;2023-06-19T09:00:06;99695.31;;;26.19;100.00
31096;BME280;17749;51.962;8.560;2023-06-19T09:02:45;99702.84;;;26.09;99.81
31096;BME280;17749;51.962;8.560;2023-06-19T09:05:23;99698.06;;;26.03;100.00
31096;BME280;17749;51.962;8.560;2023-06-19T09:07:59;99709.16;;;26.26;98.83
31096;BME280;17749;51.962;8.560;2023-06-19T09:10:31;99710.03;;;26.10;97.41
31096;BME280;17749;51.962;8.560;2023-06-19T09:13:03;99715.63;;;26.17;97.64
31096;BME280;17749;51.962;8.560;2023-06-19T09:15:35;99718.34;;;26.25;97.57
31096;BME280;17749;51.962;8.560;2023-06-19T09:18:04;99713.06;;;26.23;98.03
31096;BME280;17749;51.962;8.560;2023-06-19T09:20:34;99716.81;;;26.22;98.17
31096;BME280;17749;51.962;8.560;2023-06-19T09:23:01;99711.53;;;26.21;98.60
31096;BME280;17749;51.962;8.560;2023-06-19T09:25:28;99711.50;;;26.37;98.52
31096;BME280;17749;51.962;8.560;2023-06-19T09:27:56;99711.69;;;26.60;97.67
31096;BME280;17749;51.962;8.560;2023-06-19T09:30:23;99706.50;;;26.74;96.76
31096;BME280;17749;51.962;8.560;2023-06-19T09:32:51;99711.50;;;26.54;97.37
31096;BME280;17749;51.962;8.560;2023-06-19T09:35:19;99718.84;;;26.45;98.23
31096;BME280;17749;51.962;8.560;2023-06-19T09:37:51;99721.78;;;26.52;98.23
31096;BME280;17749;51.962;8.560;2023-06-19T09:40:21;99716.13;;;26.53;99.28
31096;BME280;17749;51.962;8.560;2023-06-19T09:42:54;99722.81;;;26.98;98.62
31096;BME280;17749;51.962;8.560;2023-06-19T09:45:29;99721.28;;;27.35;96.41
31096;BME280;17749;51.962;8.560;2023-06-19T09:47:57;99724.72;;;27.37;95.66
31096;BME280;17749;51.962;8.560;2023-06-19T09:50:42;99721.22;;;27.51;94.76
31096;BME280;17749;51.962;8.560;2023-06-19T09:53:09;99719.13;;;27.53;93.06
31096;BME280;17749;51.962;8.560;2023-06-19T09:55:37;99720.13;;;27.61;94.77
31096;BME280;17749;51.962;8.560;2023-06-19T09:58:05;99732.78;;;27.62;93.27
31096;BME280;17749;51.962;8.560;2023-06-19T10:00:33;99739.78;;;27.33;92.92
31096;BME280;17749;51.962;8.560;2023-06-19T10:03:01;99741.56;;;27.18;93.60
31096;BME280;17749;51.962;8.560;2023-06-19T10:05:31;99738.63;;;27.19;93.51
31096;BME280;17749;51.962;8.560;2023-06-19T10:07:59;99749.22;;;27.14;92.91
31096;BME280;17749;51.962;8.560;2023-06-19T10:10:28;99736.75;;;27.11;93.40
31096;BME280;17749;51.962;8.560;2023-06-19T10:13:12;99745.28;;;27.17;93.89
31096;BME280;17749;51.962;8.560;2023-06-19T10:15:41;99740.50;;;27.19;94.34
31096;BME280;17749;51.962;8.560;2023-06-19T10:18:15;99750.44;;;27.20;95.10
31096;BME280;17749;51.962;8.560;2023-06-19T10:20:44;99745.63;;;27.14;95.24
31096;BME280;17749;51.962;8.560;2023-06-19T10:23:16;99740.13;;;27.30;94.52
31096;BME280;17749;51.962;8.560;2023-06-19T10:26:06;99745.59;;;27.30;93.38
31096;BME280;17749;51.962;8.560;2023-06-19T10:28:33;99738.69;;;27.03;93.50
31096;BME280;17749;51.962;8.560;2023-06-19T10:31:06;99749.13;;;26.99;95.28
31096;BME280;17749;51.962;8.560;2023-06-19T10:33:35;99747.34;;;27.15;95.01
31096;BME280;17749;51.962;8.560;2023-06-19T10:36:23;99749.03;;;27.24;94.92
31096;BME280;17749;51.962;8.560;2023-06-19T10:38:52;99744.28;;;27.09;93.62
31096;BME280;17749;51.962;8.560;2023-06-19T10:41:23;99755.59;;;26.98;93.73
31096;BME280;17749;51.962;8.560;2023-06-19T10:44:03;99754.22;;;27.02;95.42
31096;BME280;17749;51.962;8.560;2023-06-19T10:46:33;99764.44;;;27.25;94.85
31096;BME280;17749;51.962;8.560;2023-06-19T10:49:02;99757.50;;;27.37;94.52
31096;BME280;17749;51.962;8.560;2023-06-19T10:51:37;99753.03;;;27.44;94.52
31096;BME280;17749;51.962;8.560;2023-06-19T10:54:05;99744.69;;;27.69;95.16
31096;BME280;17749;51.962;8.560;2023-06-19T10:56:32;99751.41;;;27.89;94.49
31096;BME280;17749;51.962;8.560;2023-06-19T10:59:01;99752.03;;;28.00;93.10
31096;BME280;17749;51.962;8.560;2023-06-19T11:01:37;99742.53;;;27.87;91.72
31096;BME280;17749;51.962;8.560;2023-06-19T11:04:09;99741.22;;;27.83;91.89
31096;BME280;17749;51.962;8.560;2023-06-19T11:06:38;99747.53;;;28.07;92.54
31096;BME280;17749;51.962;8.560;2023-06-19T11:09:07;99742.50;;;28.33;91.14
31096;BME280;17749;51.962;8.560;2023-06-19T11:11:44;99745.22;;;28.56;92.46
31096;BME280;17749;51.962;8.560;2023-06-19T11:14:14;99750.25;;;28.82;90.94
31096;BME280;17749;51.962;8.560;2023-06-19T11:16:44;99743.72;;;28.83;90.00
31096;BME280;17749;51.962;8.560;2023-06-19T11:19:16;99755.44;;;28.77;90.70
31096;BME280;17749;51.962;8.560;2023-06-19T11:21:49;99754.00;;;28.81;89.73
31096;BME280;17749;51.962;8.560;2023-06-19T11:24:16;99747.22;;;28.62;89.59
31096;BME280;17749;51.962;8.560;2023-06-19T11:26:46;99744.66;;;28.23;90.54
31096;BME280;17749;51.962;8.560;2023-06-19T11:31:46;99756.34;;;28.17;91.15
31096;BME280;17749;51.962;8.560;2023-06-19T11:34:15;99753.59;;;28.17;91.58
31096;BME280;17749;51.962;8.560;2023-06-19T11:36:43;99752.47;;;28.26;91.92
31096;BME280;17749;51.962;8.560;2023-06-19T11:39:14;99753.31;;;28.27;91.87
31096;BME280;17749;51.962;8.560;2023-06-19T11:41:45;99759.00;;;28.25;92.31
31096;BME280;17749;51.962;8.560;2023-06-19T11:44:12;99762.84;;;28.16;92.59
31096;BME280;17749;51.962;8.560;2023-06-19T11:46:40;99768.00;;;28.11;91.78
31096;BME280;17749;51.962;8.560;2023-06-19T11:49:17;99775.03;;;27.90;91.96
31096;BME280;17749;51.962;8.560;2023-06-19T11:51:47;99766.50;;;27.85;92.84
31096;BME280;17749;51.962;8.560;2023-06-19T11:54:15;99761.13;;;27.92;92.99
31096;BME280;17749;51.962;8.560;2023-06-19T11:56:42;99774.53;;;27.87;92.55
31096;BME280;17749;51.962;8.560;2023-06-19T11:59:09;99769.81;;;27.95;92.19
31096;BME280;17749;51.962;8.560;2023-06-19T12:01:37;99765.25;;;28.11;91.72
31096;BME280;17749;51.962;8.560;2023-06-19T12:04:06;99764.34;;;28.18;91.26
31096;BME280;17749;51.962;8.560;2023-06-19T12:06:33;99752.84;;;28.23;90.61
31096;BME280;17749;51.962;8.560;2023-06-19T12:09:02;99745.41;;;28.32;91.50
31096;BME280;17749;51.962;8.560;2023-06-19T12:11:31;99752.53;;;28.41;90.74
31096;BME280;17749;51.962;8.560;2023-06-19T12:13:58;99756.50;;;28.38;90.18
31096;BME280;17749;51.962;8.560;2023-06-19T12:16:25;99752.09;;;28.29;89.95
31096;BME280;17749;51.962;8.560;2023-06-19T12:18:53;99749.06;;;28.24;91.30
31096;BME280;17749;51.962;8.560;2023-06-19T12:21:20;99745.91;;;28.35;91.82
31096;BME280;17749;51.962;8.560;2023-06-19T12:24:02;99748.34;;;28.30;90.36
31096;BME280;17749;51.962;8.560;2023-06-19T12:26:29;99737.19;;;28.17;90.57
31096;BME280;17749;51.962;8.560;2023-06-19T12:28:56;99746.03;;;28.19;91.04
31096;BME280;17749;51.962;8.560;2023-06-19T12:31:23;99744.44;;;28.48;90.70
31096;BME280;17749;51.962;8.560;2023-06-19T12:33:51;99746.38;;;28.62;90.88
31096;BME280;17749;51.962;8.560;2023-06-19T12:36:18;99747.50;;;28.82;89.24
31096;BME280;17749;51.962;8.560;2023-06-19T12:38:45;99749.13;;;28.77;89.15
31096;BME280;17749;51.962;8.560;2023-06-19T12:41:14;99741.75;;;28.77;88.23
31096;BME280;17749;51.962;8.560;2023-06-19T12:43:41;99746.75;;;28.89;86.95
31096;BME280;17749;51.962;8.560;2023-06-19T12:46:09;99746.66;;;28.67;87.05
31096;BME280;17749;51.962;8.560;2023-06-19T12:48:36;99747.31;;;28.69;87.78
31096;BME280;17749;51.962;8.560;2023-06-19T12:51:03;99737.47;;;28.60;87.35
31096;BME280;17749;51.962;8.560;2023-06-19T12:53:30;99737.28;;;28.47;87.22
31096;BME280;17749;51.962;8.560;2023-06-19T12:55:57;99744.50;;;28.39;87.43
31096;BME280;17749;51.962;8.560;2023-06-19T12:58:29;99745.31;;;28.63;89.47
31096;BME280;17749;51.962;8.560;2023-06-19T13:00:56;99740.91;;;28.77;88.93
31096;BME280;17749;51.962;8.560;2023-06-19T13:03:23;99744.38;;;28.86;86.89
31096;BME280;17749;51.962;8.560;2023-06-19T13:05:50;99743.44;;;28.78;86.04
31096;BME280;17749;51.962;8.560;2023-06-19T13:08:17;99740.72;;;28.93;85.92
31096;BME280;17749;51.962;8.560;2023-06-19T13:10:44;99745.53;;;29.21;85.52
31096;BME280;17749;51.962;8.560;2023-06-19T13:13:12;99751.28;;;29.41;84.81
31096;BME280;17749;51.962;8.560;2023-06-19T13:15:39;99752.41;;;29.32;84.87
31096;BME280;17749;51.962;8.560;2023-06-19T13:18:06;99755.06;;;29.40;84.43
31096;BME280;17749;51.962;8.560;2023-06-19T13:20:34;99745.38;;;29.44;85.31
31096;BME280;17749;51.962;8.560;2023-06-19T13:23:01;99743.31;;;29.46;85.19
31096;BME280;17749;51.962;8.560;2023-06-19T13:25:28;99747.94;;;29.45;85.40
31096;BME280;17749;51.962;8.560;2023-06-19T13:27:55;99741.16;;;29.63;84.20
31096;BME280;17749;51.962;8.560;2023-06-19T13:30:22;99743.91;;;29.99;84.00
31096;BME280;17749;51.962;8.560;2023-06-19T13:32:49;99736.34;;;30.01;83.76
31096;BME280;17749;51.962;8.560;2023-06-19T13:35:16;99744.69;;;30.14;81.74
31096;BME280;17749;51.962;8.560;2023-06-19T13:37:43;99738.75;;;29.89;81.99
31096;BME280;17749;51.962;8.560;2023-06-19T13:40:10;99737.97;;;29.59;80.16
31096;BME280;17749;51.962;8.560;2023-06-19T13:42:38;99742.38;;;29.39;81.04
31096;BME280;17749;51.962;8.560;2023-06-19T13:45:06;99741.97;;;29.42;81.67
31096;BME280;17749;51.962;8.560;2023-06-19T13:47:33;99740.53;;;29.61;81.86
31096;BME280;17749;51.962;8.560;2023-06-19T13:50:00;99745.47;;;29.65;81.14
31096;BME280;17749;51.962;8.560;2023-06-19T13:52:27;99741.06;;;29.71;81.49
31096;BME280;17749;51.962;8.560;2023-06-19T13:54:54;99741.03;;;29.86;80.21
31096;BME280;17749;51.962;8.560;2023-06-19T13:57:22;99740.00;;;29.87;80.72
31096;BME280;17749;51.962;8.560;2023-06-19T13:59:49;99735.59;;;29.71;79.01
31096;BME280;17749;51.962;8.560;2023-06-19T14:02:16;99734.19;;;29.60;80.17
31096;BME280;17749;51.962;8.560;2023-06-19T14:04:43;99738.75;;;29.53;79.34
31096;BME280;17749;51.962;8.560;2023-06-19T14:07:10;99734.66;;;29.64;78.75
31096;BME280;17749;51.962;8.560;2023-06-19T14:09:37;99739.84;;;29.74;78.88
31096;BME280;17749;51.962;8.560;2023-06-19T14:12:05;99744.69;;;29.72;77.91
31096;BME280;17749;51.962;8.560;2023-06-19T14:14:32;99742.00;;;29.78;78.13
31096;BME280;17749;51.962;8.560;2023-06-19T14:17:00;99745.59;;;29.79;77.37
31096;BME280;17749;51.962;8.560;2023-06-19T14:19:27;99747.75;;;29.83;78.81
31096;BME280;17749;51.962;8.560;2023-06-19T14:21:55;99744.31;;;29.96;77.31
31096;BME280;17749;51.962;8.560;2023-06-19T14:24:22;99740.66;;;30.10;77.41
31096;BME280;17749;51.962;8.560;2023-06-19T14:26:51;99733.56;;;30.23;76.14
31096;BME280;17749;51.962;8.560;2023-06-19T14:29:18;99729.31;;;30.20;76.81
31096;BME280;17749;51.962;8.560;2023-06-19T14:31:46;99733.97;;;30.20;75.66
31096;BME280;17749;51.962;8.560;2023-06-19T14:34:13;99728.75;;;30.25;75.58
31096;BME280;17749;51.962;8.560;2023-06-19T14:36:40;99736.16;;;30.24;76.32
31096;BME280;17749;51.962;8.560;2023-06-19T14:39:07;99732.91;;;30.21;75.01
31096;BME280;17749;51.962;8.560;2023-06-19T14:41:34;99730.69;;;30.09;75.77
31096;BME280;17749;51.962;8.560;2023-06-19T14:44:01;99731.75;;;30.08;75.78
31096;BME280;17749;51.962;8.560;2023-06-19T14:46:28;99730.31;;;30.12;75.52
31096;BME280;17749;51.962;8.560;2023-06-19T14:48:58;99732.25;;;30.40;75.33
31096;BME280;17749;51.962;8.560;2023-06-19T14:51:27;99717.31;;;30.49;75.52
31096;BME280;17749;51.962;8.560;2023-06-19T14:53:54;99725.38;;;30.51;74.14
31096;BME280;17749;51.962;8.560;2023-06-19T14:56:21;99730.03;;;30.50;73.98
31096;BME280;17749;51.962;8.560;2023-06-19T14:58:49;99728.47;;;30.20;74.84
31096;BME280;17749;51.962;8.560;2023-06-19T15:01:16;99726.16;;;29.95;75.16
31096;BME280;17749;51.962;8.560;2023-06-19T15:03:43;99727.19;;;29.73;76.50
31096;BME280;17749;51.962;8.560;2023-06-19T15:06:10;99731.00;;;29.42;76.63
31096;BME280;17749;51.962;8.560;2023-06-19T15:08:38;99736.31;;;29.43;77.64
31096;BME280;17749;51.962;8.560;2023-06-19T15:11:06;99729.28;;;29.56;76.17
31096;BME280;17749;51.962;8.560;2023-06-19T15:13:33;99737.22;;;29.65;77.71
31096;BME280;17749;51.962;8.560;2023-06-19T15:16:00;99736.06;;;29.75;76.34
31096;BME280;17749;51.962;8.560;2023-06-19T15:18:27;99737.63;;;29.84;75.47
31096;BME280;17749;51.962;8.560;2023-06-19T15:20:54;99731.50;;;29.82;75.59
31096;BME280;17749;51.962;8.560;2023-06-19T15:23:22;99729.13;;;29.79;75.54
31096;BME280;17749;51.962;8.560;2023-06-19T15:25:48;99721.97;;;29.78;75.05
31096;BME280;17749;51.962;8.560;2023-06-19T15:28:15;99723.72;;;29.85;75.40
31096;BME280;17749;51.962;8.560;2023-06-19T15:30:45;99719.41;;;29.98;74.48
31096;BME280;17749;51.962;8.560;2023-06-19T15:33:12;99725.03;;;29.89;75.36
31096;BME280;17749;51.962;8.560;2023-06-19T15:35:42;99713.41;;;29.87;75.25
31096;BME280;17749;51.962;8.560;2023-06-19T15:38:09;99712.78;;;29.92;74.73
31096;BME280;17749;51.962;8.560;2023-06-19T15:40:36;99717.38;;;29.85;75.09
31096;BME280;17749;51.962;8.560;2023-06-19T15:43:04;99710.44;;;29.89;74.56
31096;BME280;17749;51.962;8.560;2023-06-19T15:45:31;99718.28;;;29.92;74.81
31096;BME280;17749;51.962;8.560;2023-06-19T15:47:58;99705.88;;;29.96;74.63
31096;BME280;17749;51.962;8.560;2023-06-19T15:50:26;99709.72;;;30.02;74.45
31096;BME280;17749;51.962;8.560;2023-06-19T15:52:53;99709.94;;;30.00;74.52
31096;BME280;17749;51.962;8.560;2023-06-19T15:55:20;99704.97;;;30.10;74.00
31096;BME280;17749;51.962;8.560;2023-06-19T15:57:47;99703.84;;;30.05;74.46
31096;BME280;17749;51.962;8.560;2023-06-19T16:00:15;99703.66;;;30.06;75.07
31096;BME280;17749;51.962;8.560;2023-06-19T16:02:42;99706.66;;;30.11;75.07
31096;BME280;17749;51.962;8.560;2023-06-19T16:05:11;99706.31;;;30.00;74.84
31096;BME280;17749;51.962;8.560;2023-06-19T16:07:38;99696.59;;;29.97;75.46
31096;BME280;17749;51.962;8.560;2023-06-19T16:10:06;99700.38;;;29.96;77.03
31096;BME280;17749;51.962;8.560;2023-06-19T16:12:33;99694.75;;;30.04;77.98
31096;BME280;17749;51.962;8.560;2023-06-19T16:15:01;99688.00;;;30.07;77.48
31096;BME280;17749;51.962;8.560;2023-06-19T16:17:27;99686.00;;;29.94;79.67
31096;BME280;17749;51.962;8.560;2023-06-19T16:19:54;99689.16;;;29.69;78.32
31096;BME280;17749;51.962;8.560;2023-06-19T16:22:21;99689.22;;;29.76;78.08
31096;BME280;17749;51.962;8.560;2023-06-19T16:24:48;99682.63;;;29.70;77.64
31096;BME280;17749;51.962;8.560;2023-06-19T16:27:15;99681.97;;;29.68;76.35
31096;BME280;17749;51.962;8.560;2023-06-19T16:29:42;99681.41;;;29.58;75.77
31096;BME280;17749;51.962;8.560;2023-06-19T16:32:09;99678.78;;;29.50;75.61
31096;BME280;17749;51.962;8.560;2023-06-19T16:34:37;99674.88;;;29.38;75.94
31096;BME280;17749;51.962;8.560;2023-06-19T16:37:04;99681.88;;;29.25;76.66
31096;BME280;17749;51.962;8.560;2023-06-19T16:39:31;99680.06;;;29.11;76.42
31096;BME280;17749;51.962;8.560;2023-06-19T16:41:59;99674.91;;;29.08;76.76
31096;BME280;17749;51.962;8.560;2023-06-19T16:44:26;99679.78;;;29.06;76.49
31096;BME280;17749;51.962;8.560;2023-06-19T16:46:53;99681.75;;;28.82;77.23
31096;BME280;17749;51.962;8.560;2023-06-19T16:49:20;99681.75;;;28.82;76.52
31096;BME280;17749;51.962;8.560;2023-06-19T16:51:49;99679.75;;;28.76;76.99
31096;BME280;17749;51.962;8.560;2023-06-19T16:54:16;99681.91;;;28.66;76.99
31096;BME280;17749;51.962;8.560;2023-06-19T16:56:43;99685.81;;;28.57;76.84
31096;BME280;17749;51.962;8.560;2023-06-19T16:59:10;99687.22;;;28.53;76.43
31096;BME280;17749;51.962;8.560;2023-06-19T17:01:37;99687.81;;;28.48;75.27
31096;BME280;17749;51.962;8.560;2023-06-19T17:04:06;99689.09;;;28.37;75.45
31096;BME280;17749;51.962;8.560;2023-06-19T17:06:34;99688.75;;;28.17;76.39
31096;BME280;17749;51.962;8.560;2023-06-19T17:09:01;99692.28;;;28.03;76.72
31096;BME280;17749;51.962;8.560;2023-06-19T17:11:29;99696.53;;;28.06;76.71
31096;BME280;17749;51.962;8.560;2023-06-19T17:13:56;99689.75;;;28.02;77.57
31096;BME280;17749;51.962;8.560;2023-06-19T17:16:23;99698.50;;;27.97;77.16
31096;BME280;17749;51.962;8.560;2023-06-19T17:18:50;99689.16;;;27.91;77.37
31096;BME280;17749;51.962;8.560;2023-06-19T17:21:16;99696.59;;;27.83;77.26
31096;BME280;17749;51.962;8.560;2023-06-19T17:23:43;99702.25;;;27.73;77.89
31096;BME280;17749;51.962;8.560;2023-06-19T17:26:11;99701.50;;;27.56;76.78
31096;BME280;17749;51.962;8.560;2023-06-19T17:28:38;99709.66;;;27.41;78.43
31096;BME280;17749;51.962;8.560;2023-06-19T17:31:05;99704.56;;;27.38;78.17
31096;BME280;17749;51.962;8.560;2023-06-19T17:33:34;99713.78;;;27.37;78.61
31096;BME280;17749;51.962;8.560;2023-06-19T17:36:01;99704.56;;;27.38;77.94
31096;BME280;17749;51.962;8.560;2023-06-19T17:38:29;99711.22;;;27.36;78.56
31096;BME280;17749;51.962;8.560;2023-06-19T17:40:56;99707.31;;;27.30;79.34
31096;BME280;17749;51.962;8.560;2023-06-19T17:43:23;99713.50;;;27.24;78.84
31096;BME280;17749;51.962;8.560;2023-06-19T17:45:50;99715.25;;;27.08;79.19
31096;BME280;17749;51.962;8.560;2023-06-19T17:48:17;99711.88;;;27.06;79.56
31096;BME280;17749;51.962;8.560;2023-06-19T17:50:44;99706.41;;;27.06;80.55
31096;BME280;17749;51.962;8.560;2023-06-19T17:53:11;99705.03;;;27.02;81.59
31096;BME280;17749;51.962;8.560;2023-06-19T17:55:38;99713.28;;;26.94;80.90
31096;BME280;17749;51.962;8.560;2023-06-19T17:58:05;99711.59;;;26.85;81.17
31096;BME280;17749;51.962;8.560;2023-06-19T18:00:32;99708.72;;;26.78;81.39
31096;BME280;17749;51.962;8.560;2023-06-19T18:02:59;99706.69;;;26.72;80.87
31096;BME280;17749;51.962;8.560;2023-06-19T18:05:26;99710.44;;;26.71;81.15